createdAt,value
2016-08-07T00:00:37.046Z,63.98
2016-08-07T00:01:39.583Z,64.04
2016-08-07T00:02:38.679Z,64.06
2016-08-07T00:03:32.954Z,64.07
2016-08-07T00:04:43.133Z,64.11
2016-08-07T00:05:35.488Z,64.09
2016-08-07T00:06:14.534Z,64.12
2016-08-07T00:07:34.341Z,64.11
2016-08-07T00:08:33.309Z,64.11
2016-08-07T00:09:14.980Z,64.13
2016-08-07T00:10:18.418Z,64.11
2016-08-07T00:11:44.401Z,64.14
2016-08-07T00:12:14.918Z,64.15
2016-08-07T00:13:43.609Z,64.17
2016-08-07T00:14:40.027Z,64.16
2016-08-07T00:15:38.005Z,64.16
2016-08-07T00:16:37.098Z,64.14
2016-08-07T00:17:32.367Z,64.11
2016-08-07T00:18:26.286Z,64.14
2016-08-07T00:19:13.147Z,64.16
2016-08-07T00:20:38.474Z,64.14
2016-08-07T00:21:20.102Z,64.17
2016-08-07T00:22:50.123Z,64.19
2016-08-07T00:23:35.850Z,64.21
2016-08-07T00:24:41.060Z,64.24
2016-08-07T00:25:46.741Z,64.23
2016-08-07T00:26:46.557Z,64.27
2016-08-07T00:27:39.860Z,64.27
2016-08-07T00:28:15.983Z,64.27
2016-08-07T00:29:27.367Z,64.35
2016-08-07T00:30:22.541Z,64.24
2016-08-07T00:31:13.798Z,64.24
2016-08-07T00:32:38.323Z,64.28
2016-08-07T00:33:37.621Z,64.28
2016-08-07T00:34:45.652Z,64.29
2016-08-07T00:35:22.861Z,64.31
2016-08-07T00:36:40.120Z,64.30
2016-08-07T00:37:41.457Z,64.30
2016-08-07T00:38:33.795Z,64.16
2016-08-07T00:39:44.717Z,63.31
2016-08-07T00:40:33.178Z,63.08
2016-08-07T00:41:48.972Z,62.97
2016-08-07T00:42:46.223Z,62.94
2016-08-07T00:43:16.357Z,63.88
2016-08-07T00:44:37.677Z,64.10
2016-08-07T00:45:39.055Z,64.19
2016-08-07T00:46:33.946Z,64.25
2016-08-07T00:47:42.381Z,64.28
2016-08-07T00:48:33.389Z,64.31
2016-08-07T00:49:26.185Z,64.34
2016-08-07T00:50:39.280Z,64.35
2016-08-07T00:51:31.895Z,64.36
2016-08-07T00:52:47.831Z,64.37
2016-08-07T00:53:45.171Z,64.41
2016-08-07T00:54:33.462Z,64.36
2016-08-07T00:55:40.058Z,64.38
2016-08-07T00:56:25.957Z,64.39
2016-08-07T00:57:38.954Z,64.40
2016-08-07T00:58:42.091Z,64.40
2016-08-07T00:59:33.053Z,64.41
2016-08-07T01:00:36.870Z,64.42
2016-08-07T01:01:45.359Z,64.45
2016-08-07T01:02:36.417Z,64.45
2016-08-07T01:03:27.710Z,64.29
2016-08-07T01:04:21.773Z,63.43
2016-08-07T01:05:28.925Z,63.47
2016-08-07T01:06:19.191Z,64.14
2016-08-07T01:07:50.294Z,64.33
2016-08-07T01:08:27.832Z,64.40
2016-08-07T01:09:29.764Z,64.46
2016-08-07T01:10:16.070Z,64.47
2016-08-07T01:11:20.225Z,64.50
2016-08-07T01:12:13.785Z,64.50
2016-08-07T01:13:44.942Z,64.50
2016-08-07T01:14:45.234Z,64.53
2016-08-07T01:15:38.948Z,64.53
2016-08-07T01:16:38.698Z,64.51
2016-08-07T01:17:39.246Z,64.48
2016-08-07T01:18:21.853Z,64.50
2016-08-07T01:19:38.791Z,64.51
2016-08-07T01:20:46.838Z,64.55
2016-08-07T01:21:34.050Z,64.53
2016-08-07T01:22:14.395Z,64.54
2016-08-07T01:23:34.400Z,63.52
2016-08-07T01:24:27.677Z,63.29
2016-08-07T01:25:44.263Z,63.20
2016-08-07T01:26:50.921Z,63.14
2016-08-07T01:27:39.389Z,63.12
2016-08-07T01:28:14.310Z,63.37
2016-08-07T01:29:33.592Z,64.11
2016-08-07T01:30:31.217Z,64.28
2016-08-07T01:31:13.590Z,64.43
2016-08-07T01:32:26.100Z,64.48
2016-08-07T01:33:33.240Z,64.54
2016-08-07T01:34:38.737Z,64.54
2016-08-07T01:35:13.862Z,64.53
2016-08-07T01:37:40.266Z,64.56
2016-08-07T01:38:39.126Z,64.56
2016-08-07T01:39:49.017Z,64.57
2016-08-07T01:40:38.780Z,64.61
2016-08-07T01:41:16.290Z,64.61
2016-08-07T01:42:43.464Z,64.64
2016-08-07T01:43:38.646Z,64.64
2016-08-07T01:44:40.451Z,64.62
2016-08-07T01:45:33.679Z,64.64
2016-08-07T01:46:34.373Z,64.66
2016-08-07T01:47:31.446Z,64.67
2016-08-07T01:48:31.815Z,64.67
2016-08-07T01:49:46.178Z,64.67
2016-08-07T01:50:13.422Z,64.65
2016-08-07T01:52:05.195Z,64.66
2016-08-07T01:52:39.364Z,64.66
2016-08-07T01:53:38.797Z,64.68
2016-08-07T01:54:44.878Z,64.67
2016-08-07T01:55:34.448Z,64.68
2016-08-07T01:56:27.284Z,64.67
2016-08-07T01:57:30.287Z,64.69
2016-08-07T01:58:42.240Z,64.70
2016-08-07T01:59:33.158Z,64.69
2016-08-07T02:00:27.535Z,64.69
2016-08-07T02:01:36.516Z,64.68
2016-08-07T02:02:43.446Z,64.67
2016-08-07T02:03:33.576Z,64.68
2016-08-07T02:04:23.934Z,64.69
2016-08-07T02:05:23.997Z,64.72
2016-08-07T02:06:32.628Z,64.71
2016-08-07T02:07:44.999Z,64.70
2016-08-07T02:08:38.974Z,64.71
2016-08-07T02:09:37.607Z,64.75
2016-08-07T02:10:46.239Z,64.74
2016-08-07T02:11:45.610Z,64.73
2016-08-07T02:12:33.477Z,64.77
2016-08-07T02:13:31.462Z,64.74
2016-08-07T02:14:34.523Z,64.75
2016-08-07T02:15:25.936Z,64.75
2016-08-07T02:16:30.210Z,64.76
2016-08-07T02:17:27.861Z,64.76
2016-08-07T02:18:30.930Z,64.76
2016-08-07T02:19:44.064Z,64.75
2016-08-07T02:20:27.741Z,64.75
2016-08-07T02:21:47.854Z,64.75
2016-08-07T02:22:43.396Z,64.74
2016-08-07T02:23:33.132Z,64.78
2016-08-07T02:24:28.617Z,64.79
2016-08-07T02:25:43.828Z,64.80
2016-08-07T02:26:36.876Z,64.79
2016-08-07T02:27:53.372Z,64.79
2016-08-07T02:28:24.856Z,64.80
2016-08-07T02:29:23.039Z,64.79
2016-08-07T02:30:37.109Z,64.83
2016-08-07T02:31:32.823Z,64.81
2016-08-07T02:32:44.470Z,64.82
2016-08-07T02:33:38.288Z,64.80
2016-08-07T02:34:27.604Z,64.80
2016-08-07T02:35:22.405Z,64.79
2016-08-07T02:37:44.108Z,63.72
2016-08-07T02:38:30.979Z,64.48
2016-08-07T02:39:36.255Z,64.79
2016-08-07T02:40:33.395Z,64.82
2016-08-07T02:41:35.116Z,64.89
2016-08-07T02:42:27.036Z,64.86
2016-08-07T02:43:39.063Z,64.91
2016-08-07T02:44:34.262Z,64.91
2016-08-07T02:45:44.878Z,64.88
2016-08-07T02:46:51.627Z,64.90
2016-08-07T02:47:40.383Z,64.89
2016-08-07T02:48:14.403Z,64.89
2016-08-07T02:49:27.987Z,64.85
2016-08-07T02:50:27.457Z,64.84
2016-08-07T02:51:44.486Z,64.84
2016-08-07T02:52:43.725Z,64.80
2016-08-07T02:53:23.971Z,64.75
2016-08-07T02:54:37.415Z,64.76
2016-08-07T02:55:43.756Z,64.73
2016-08-07T02:56:38.518Z,64.73
2016-08-07T02:57:44.227Z,64.70
2016-08-07T02:58:41.415Z,64.68
2016-08-07T02:59:43.596Z,64.67
2016-08-07T03:00:26.648Z,64.66
2016-08-07T03:01:15.009Z,64.65
2016-08-07T03:02:38.731Z,64.63
2016-08-07T03:03:34.834Z,64.59
2016-08-07T03:04:28.364Z,64.64
2016-08-07T03:05:39.025Z,64.59
2016-08-07T03:06:45.603Z,64.59
2016-08-07T03:07:36.226Z,64.59
2016-08-07T03:08:37.371Z,64.58
2016-08-07T03:09:48.448Z,64.57
2016-08-07T03:10:50.501Z,64.57
2016-08-07T03:11:42.354Z,64.56
2016-08-07T03:12:32.309Z,64.56
2016-08-07T03:13:44.102Z,64.55
2016-08-07T03:14:34.646Z,64.53
2016-08-07T03:15:44.135Z,64.53
2016-08-07T03:16:44.723Z,64.51
2016-08-07T03:17:43.065Z,64.51
2016-08-07T03:18:39.353Z,64.40
2016-08-07T03:19:33.572Z,63.86
2016-08-07T03:20:34.222Z,64.26
2016-08-07T03:21:21.137Z,64.34
2016-08-07T03:22:20.341Z,64.43
2016-08-07T03:23:44.648Z,64.41
2016-08-07T03:24:49.773Z,64.40
2016-08-07T03:25:34.263Z,64.42
2016-08-07T03:26:43.953Z,64.41
2016-08-07T03:27:31.224Z,64.39
2016-08-07T03:28:32.995Z,64.41
2016-08-07T03:29:30.945Z,63.37
2016-08-07T03:30:38.862Z,63.15
2016-08-07T03:31:26.400Z,63.02
2016-08-07T03:32:15.095Z,62.95
2016-08-07T03:33:34.018Z,63.90
2016-08-07T03:34:33.469Z,64.10
2016-08-07T03:35:32.316Z,64.18
2016-08-07T03:37:32.096Z,64.25
2016-08-07T03:38:39.592Z,64.26
2016-08-07T03:39:33.278Z,64.28
2016-08-07T03:40:49.537Z,64.29
2016-08-07T03:41:49.022Z,64.29
2016-08-07T03:42:33.832Z,64.31
2016-08-07T03:43:42.950Z,64.27
2016-08-07T03:44:44.216Z,64.26
2016-08-07T03:45:38.448Z,64.27
2016-08-07T03:46:38.035Z,64.25
2016-08-07T03:47:14.054Z,64.27
2016-08-07T03:48:33.846Z,63.21
2016-08-07T03:49:44.633Z,62.99
2016-08-07T03:50:24.343Z,62.87
2016-08-07T03:51:20.089Z,62.79
2016-08-07T03:52:44.543Z,62.76
2016-08-07T03:53:40.013Z,62.81
2016-08-07T03:54:13.242Z,63.67
2016-08-07T03:55:37.218Z,63.90
2016-08-07T03:56:44.163Z,64.01
2016-08-07T03:57:36.903Z,64.04
2016-08-07T03:58:46.103Z,64.05
2016-08-07T03:59:51.687Z,64.08
2016-08-07T04:00:38.043Z,64.08
2016-08-07T04:01:32.660Z,64.08
2016-08-07T04:02:15.685Z,64.07
2016-08-07T04:03:34.005Z,64.07
2016-08-07T04:04:43.843Z,64.08
2016-08-07T04:05:39.366Z,64.08
2016-08-07T04:06:44.317Z,64.09
2016-08-07T04:07:32.399Z,64.06
2016-08-07T04:08:43.682Z,64.07
2016-08-07T04:09:50.843Z,64.06
2016-08-07T04:10:26.032Z,64.03
2016-08-07T04:11:36.334Z,64.04
2016-08-07T04:12:16.209Z,64.02
2016-08-07T04:13:45.604Z,64.01
2016-08-07T04:14:26.551Z,63.99
2016-08-07T04:15:31.737Z,63.99
2016-08-07T04:16:40.353Z,64.01
2016-08-07T04:17:37.349Z,63.98
2016-08-07T04:18:37.998Z,63.95
2016-08-07T04:19:37.413Z,63.94
2016-08-07T04:20:40.414Z,63.93
2016-08-07T04:21:38.869Z,63.93
2016-08-07T04:22:35.338Z,63.94
2016-08-07T04:23:37.560Z,63.92
2016-08-07T04:24:35.103Z,63.90
2016-08-07T04:25:26.804Z,63.68
2016-08-07T04:26:38.932Z,62.79
2016-08-07T04:27:42.448Z,62.84
2016-08-07T04:28:27.656Z,63.55
2016-08-07T04:29:44.151Z,63.72
2016-08-07T04:30:38.643Z,63.79
2016-08-07T04:31:43.401Z,63.81
2016-08-07T04:32:40.254Z,63.77
2016-08-07T04:33:45.092Z,63.81
2016-08-07T04:34:37.981Z,63.81
2016-08-07T04:35:20.782Z,63.81
2016-08-07T04:36:44.285Z,63.78
2016-08-07T04:37:14.556Z,63.78
2016-08-07T04:38:41.212Z,63.78
2016-08-07T04:39:38.261Z,63.79
2016-08-07T04:40:44.043Z,63.76
2016-08-07T04:41:32.399Z,63.74
2016-08-07T04:42:15.839Z,62.70
2016-08-07T04:43:15.653Z,63.49
2016-08-07T04:44:12.856Z,63.62
2016-08-07T04:45:39.227Z,63.61
2016-08-07T04:46:46.509Z,63.65
2016-08-07T04:47:27.545Z,63.67
2016-08-07T04:48:53.595Z,63.64
2016-08-07T04:49:40.228Z,63.62
2016-08-07T04:50:39.336Z,63.64
2016-08-07T04:51:32.320Z,63.62
2016-08-07T04:52:34.722Z,63.62
2016-08-07T04:53:45.999Z,63.61
2016-08-07T04:54:15.049Z,63.62
2016-08-07T04:55:41.677Z,63.61
2016-08-07T04:56:50.319Z,63.62
2016-08-07T04:57:17.204Z,63.62
2016-08-07T04:58:34.881Z,63.60
2016-08-07T04:59:48.324Z,63.61
2016-08-07T05:00:43.729Z,63.61
2016-08-07T05:01:44.129Z,63.59
2016-08-07T05:02:41.817Z,63.59
2016-08-07T05:03:27.747Z,63.48
2016-08-07T05:04:51.106Z,63.58
2016-08-07T05:05:50.782Z,63.58
2016-08-07T05:06:14.294Z,63.59
2016-08-07T05:07:44.308Z,63.58
2016-08-07T05:08:14.157Z,63.59
2016-08-07T05:09:33.496Z,63.58
2016-08-07T05:10:39.352Z,63.60
2016-08-07T05:11:28.109Z,63.57
2016-08-07T05:12:38.563Z,63.58
2016-08-07T05:13:49.616Z,63.57
2016-08-07T05:14:47.657Z,63.58
2016-08-07T05:15:49.056Z,63.57
2016-08-07T05:16:38.442Z,63.60
2016-08-07T05:17:40.258Z,62.55
2016-08-07T05:18:34.485Z,62.34
2016-08-07T05:19:36.630Z,63.20
2016-08-07T05:20:40.022Z,63.39
2016-08-07T05:21:15.190Z,63.47
2016-08-07T05:22:43.539Z,63.52
2016-08-07T05:23:37.157Z,63.54
2016-08-07T05:24:52.146Z,63.54
2016-08-07T05:25:42.360Z,63.55
2016-08-07T05:26:33.772Z,63.53
2016-08-07T05:27:19.981Z,63.54
2016-08-07T05:28:15.131Z,63.53
2016-08-07T05:29:44.488Z,63.54
2016-08-07T05:30:33.083Z,63.53
2016-08-07T05:31:43.602Z,63.55
2016-08-07T05:32:38.831Z,63.55
2016-08-07T05:33:42.552Z,63.56
2016-08-07T05:34:43.517Z,63.55
2016-08-07T05:35:33.247Z,63.55
2016-08-07T05:36:34.516Z,63.55
2016-08-07T05:38:39.183Z,63.50
2016-08-07T05:39:32.450Z,63.54
2016-08-07T05:40:44.666Z,63.55
2016-08-07T05:41:38.835Z,63.55
2016-08-07T05:42:42.025Z,63.56
2016-08-07T05:43:45.392Z,63.56
2016-08-07T05:44:39.453Z,63.55
2016-08-07T05:45:43.783Z,63.55
2016-08-07T05:46:42.945Z,63.55
2016-08-07T05:47:37.664Z,63.55
2016-08-07T05:48:44.488Z,62.51
2016-08-07T05:49:34.967Z,62.31
2016-08-07T05:50:32.890Z,62.21
2016-08-07T05:51:38.895Z,62.15
2016-08-07T05:52:34.697Z,62.36
2016-08-07T05:53:45.599Z,63.11
2016-08-07T05:54:45.594Z,63.33
2016-08-07T05:55:34.594Z,63.39
2016-08-07T05:56:44.522Z,63.44
2016-08-07T05:57:40.745Z,63.44
2016-08-07T05:58:38.164Z,63.47
2016-08-07T05:59:35.098Z,63.48
2016-08-07T06:00:26.572Z,63.50
2016-08-07T06:01:37.200Z,62.69
2016-08-07T06:02:39.868Z,63.28
2016-08-07T06:03:16.374Z,63.40
2016-08-07T06:04:38.211Z,63.44
2016-08-07T06:05:49.036Z,63.48
2016-08-07T06:06:40.237Z,63.50
2016-08-07T06:07:40.183Z,63.50
2016-08-07T06:08:33.809Z,63.50
2016-08-07T06:09:48.140Z,63.50
2016-08-07T06:10:45.042Z,63.51
2016-08-07T06:11:31.638Z,63.51
2016-08-07T06:12:37.029Z,63.51
2016-08-07T06:13:38.660Z,63.52
2016-08-07T06:14:38.640Z,63.52
2016-08-07T06:15:16.376Z,63.52
2016-08-07T06:16:32.207Z,62.52
2016-08-07T06:17:50.152Z,63.28
2016-08-07T06:18:46.393Z,63.42
2016-08-07T06:19:54.159Z,63.48
2016-08-07T06:20:38.631Z,63.49
2016-08-07T06:21:31.616Z,63.49
2016-08-07T06:22:43.192Z,63.50
2016-08-07T06:23:33.501Z,63.50
2016-08-07T06:24:49.016Z,63.50
2016-08-07T06:25:34.120Z,63.50
2016-08-07T06:26:27.652Z,63.52
2016-08-07T06:27:44.713Z,63.51
2016-08-07T06:28:46.589Z,63.50
2016-08-07T06:29:45.143Z,63.49
2016-08-07T06:30:44.375Z,63.50
2016-08-07T06:31:40.186Z,63.51
2016-08-07T06:32:43.946Z,63.51
2016-08-07T06:33:44.177Z,63.51
2016-08-07T06:34:25.145Z,63.50
2016-08-07T06:35:44.663Z,63.51
2016-08-07T06:36:43.176Z,63.51
2016-08-07T06:37:41.648Z,63.50
2016-08-07T06:38:33.951Z,63.51
2016-08-07T06:39:34.638Z,63.51
2016-08-07T06:40:45.892Z,63.51
2016-08-07T06:41:33.915Z,63.53
2016-08-07T06:42:42.475Z,63.50
2016-08-07T06:43:14.329Z,63.52
2016-08-07T06:44:38.423Z,63.51
2016-08-07T06:45:15.638Z,63.50
2016-08-07T06:46:44.076Z,63.52
2016-08-07T06:47:40.321Z,63.51
2016-08-07T06:48:40.326Z,63.52
2016-08-07T06:49:43.827Z,63.53
2016-08-07T06:50:33.967Z,63.52
2016-08-07T06:51:44.574Z,63.53
2016-08-07T06:52:45.731Z,63.52
2016-08-07T06:53:45.997Z,63.53
2016-08-07T06:54:34.498Z,63.52
2016-08-07T06:55:22.445Z,63.52
2016-08-07T06:56:34.758Z,63.52
2016-08-07T06:57:28.058Z,63.54
2016-08-07T06:58:32.960Z,63.53
2016-08-07T06:59:47.365Z,63.55
2016-08-07T07:00:36.815Z,63.53
2016-08-07T07:01:50.206Z,63.53
2016-08-07T07:02:30.593Z,63.53
2016-08-07T07:03:23.290Z,63.54
2016-08-07T07:04:39.006Z,63.55
2016-08-07T07:05:43.881Z,63.58
2016-08-07T07:06:31.663Z,63.64
2016-08-07T07:08:33.878Z,63.65
2016-08-07T07:09:16.551Z,63.68
2016-08-07T07:10:17.055Z,63.65
2016-08-07T07:11:39.632Z,63.71
2016-08-07T07:12:45.137Z,63.87
2016-08-07T07:13:41.758Z,64.15
2016-08-07T07:14:14.801Z,64.42
2016-08-07T07:15:17.802Z,64.05
2016-08-07T07:16:27.883Z,63.54
2016-08-07T07:17:45.307Z,63.57
2016-08-07T07:18:43.522Z,63.64
2016-08-07T07:19:13.671Z,63.56
2016-08-07T07:20:30.482Z,63.60
2016-08-07T07:21:48.523Z,64.82
2016-08-07T07:22:27.755Z,65.20
2016-08-07T07:23:25.352Z,65.64
2016-08-07T07:24:47.859Z,65.59
2016-08-07T07:25:54.388Z,65.62
2016-08-07T07:26:30.815Z,65.78
2016-08-07T07:27:39.347Z,65.76
2016-08-07T07:28:20.221Z,65.80
2016-08-07T07:29:42.256Z,65.91
2016-08-07T07:30:23.440Z,65.90
2016-08-07T07:31:45.793Z,65.94
2016-08-07T07:32:21.482Z,65.75
2016-08-07T07:33:16.659Z,65.71
2016-08-07T07:34:25.085Z,65.63
2016-08-07T07:35:37.363Z,65.54
2016-08-07T07:36:39.324Z,65.42
2016-08-07T07:37:15.731Z,65.44
2016-08-07T07:38:39.364Z,65.36
2016-08-07T07:39:14.133Z,65.47
2016-08-07T07:40:41.921Z,65.44
2016-08-07T07:41:36.414Z,65.46
2016-08-07T07:42:38.252Z,65.38
2016-08-07T07:43:25.278Z,65.44
2016-08-07T07:44:32.220Z,65.34
2016-08-07T07:45:26.010Z,65.18
2016-08-07T07:46:38.006Z,65.16
2016-08-07T07:47:41.041Z,65.12
2016-08-07T08:02:01.531Z,64.92
2016-08-07T08:02:02.624Z,64.76
2016-08-07T08:02:28.638Z,64.56
2016-08-07T08:03:41.883Z,64.43
2016-08-07T08:04:15.455Z,64.46
2016-08-07T08:05:23.606Z,64.45
2016-08-07T08:06:25.863Z,64.46
2016-08-07T08:07:16.662Z,64.37
2016-08-07T08:08:13.757Z,64.25
2016-08-07T08:09:14.070Z,64.18
2016-08-07T08:10:12.426Z,64.45
2016-08-07T08:11:19.959Z,64.39
2016-08-07T08:12:30.935Z,64.21
2016-08-07T08:13:19.150Z,63.20
2016-08-07T08:14:44.854Z,63.26
2016-08-07T08:15:14.896Z,63.97
2016-08-07T08:16:45.113Z,63.93
2016-08-07T08:17:25.697Z,63.04
2016-08-07T08:18:33.786Z,63.17
2016-08-07T08:19:28.821Z,63.11
2016-08-07T08:20:33.611Z,63.05
2016-08-07T08:21:24.827Z,63.15
2016-08-07T08:22:28.203Z,64.08
2016-08-07T08:23:27.191Z,64.13
2016-08-07T08:24:27.659Z,63.18
2016-08-07T08:25:37.362Z,63.05
2016-08-07T08:26:24.790Z,63.89
2016-08-07T08:27:39.357Z,64.16
2016-08-07T08:28:13.615Z,64.15
2016-08-07T08:29:14.798Z,64.36
2016-08-07T08:30:15.227Z,64.24
2016-08-07T08:31:12.800Z,64.58
2016-08-07T08:32:24.397Z,64.48
2016-08-07T08:33:16.854Z,64.69
2016-08-07T08:34:33.673Z,64.62
2016-08-07T08:35:24.339Z,64.69
2016-08-07T08:36:14.340Z,64.70
2016-08-07T08:37:21.822Z,64.71
2016-08-07T08:38:29.838Z,64.73
2016-08-07T08:39:27.868Z,64.78
2016-08-07T08:40:28.341Z,64.74
2016-08-07T08:41:28.090Z,64.75
2016-08-07T08:42:21.004Z,64.77
2016-08-07T08:43:26.704Z,63.76
2016-08-07T08:44:33.777Z,63.53
2016-08-07T08:45:28.948Z,63.47
2016-08-07T08:46:22.619Z,63.34
2016-08-07T08:47:13.669Z,63.42
2016-08-07T08:48:17.077Z,63.39
2016-08-07T08:49:16.211Z,64.35
2016-08-07T08:50:13.893Z,64.52
2016-08-07T08:51:23.707Z,64.62
2016-08-07T08:52:38.081Z,64.66
2016-08-07T08:53:20.662Z,64.64
2016-08-07T08:54:11.965Z,64.68
2016-08-07T08:55:34.688Z,64.49
2016-08-07T08:56:14.562Z,63.92
2016-08-07T08:57:24.798Z,64.48
2016-08-07T08:58:30.013Z,64.52
2016-08-07T08:59:20.839Z,64.57
2016-08-07T09:00:26.942Z,64.58
2016-08-07T09:01:21.785Z,64.58
2016-08-07T09:02:28.637Z,64.49
2016-08-07T09:03:17.376Z,64.50
2016-08-07T09:04:25.467Z,64.42
2016-08-07T09:05:21.871Z,64.44
2016-08-07T09:06:33.507Z,64.34
2016-08-07T09:07:20.324Z,64.39
2016-08-07T09:08:16.076Z,64.36
2016-08-07T09:09:25.651Z,64.26
2016-08-07T09:10:29.163Z,64.23
2016-08-07T09:11:26.067Z,64.22
2016-08-07T09:12:51.045Z,64.22
2016-08-07T09:13:13.551Z,64.25
2016-08-07T09:14:23.134Z,64.21
2016-08-07T09:15:19.087Z,64.19
2016-08-07T09:16:32.994Z,64.20
2016-08-07T09:17:34.124Z,64.20
2016-08-07T09:18:16.885Z,64.16
2016-08-07T09:19:24.763Z,64.18
2016-08-07T09:20:11.004Z,64.13
2016-08-07T09:21:28.428Z,64.13
2016-08-07T09:22:38.272Z,63.12
2016-08-07T09:24:30.867Z,62.89
2016-08-07T09:25:26.131Z,62.73
2016-08-07T09:26:22.816Z,62.65
2016-08-07T09:27:31.429Z,62.90
2016-08-07T09:28:19.743Z,63.65
2016-08-07T09:29:15.324Z,63.83
2016-08-07T09:30:27.245Z,63.91
2016-08-07T09:31:18.519Z,63.97
2016-08-07T09:32:23.520Z,63.99
2016-08-07T09:33:34.094Z,64.01
2016-08-07T09:34:26.567Z,64.00
2016-08-07T09:35:25.799Z,64.02
2016-08-07T09:36:17.414Z,64.01
2016-08-07T09:37:20.624Z,64.00
2016-08-07T09:38:25.059Z,63.96
2016-08-07T09:39:17.440Z,63.96
2016-08-07T09:40:28.345Z,63.91
2016-08-07T09:41:16.624Z,63.90
2016-08-07T09:42:15.670Z,63.89
2016-08-07T09:43:16.547Z,63.89
2016-08-07T09:44:24.795Z,63.88
2016-08-07T09:45:19.248Z,63.85
2016-08-07T09:46:28.322Z,63.84
2016-08-07T09:47:27.460Z,63.86
2016-08-07T09:48:14.370Z,63.83
2016-08-07T09:49:21.378Z,63.86
2016-08-07T09:50:27.127Z,63.88
2016-08-07T09:51:24.951Z,63.87
2016-08-07T09:52:28.803Z,63.84
2016-08-07T09:54:21.140Z,63.83
2016-08-07T09:55:24.909Z,63.84
2016-08-07T09:56:14.576Z,62.79
2016-08-07T09:57:19.743Z,62.60
2016-08-07T09:58:17.527Z,62.51
2016-08-07T09:59:20.845Z,62.44
2016-08-07T10:00:19.322Z,62.41
2016-08-07T10:01:20.562Z,62.73
2016-08-07T10:02:18.724Z,63.40
2016-08-07T10:03:15.708Z,63.60
2016-08-07T10:04:14.351Z,63.69
2016-08-07T10:05:23.124Z,63.74
2016-08-07T10:06:21.601Z,63.76
2016-08-07T10:07:22.167Z,63.79
2016-08-07T10:09:21.352Z,63.75
2016-08-07T10:10:22.197Z,63.73
2016-08-07T10:11:26.588Z,63.54
2016-08-07T10:12:21.628Z,60.19
2016-08-07T10:13:24.230Z,59.23
2016-08-07T10:14:32.432Z,59.10
2016-08-07T10:15:22.415Z,58.27
2016-08-07T10:16:13.501Z,58.06
2016-08-07T10:17:38.595Z,58.40
2016-08-07T10:18:32.826Z,58.02
2016-08-07T10:19:18.518Z,57.98
2016-08-07T10:20:24.384Z,57.53
2016-08-07T10:21:29.845Z,58.26
2016-08-07T10:22:27.168Z,58.92
2016-08-07T10:24:32.666Z,57.26
2016-08-07T10:25:24.607Z,56.86
2016-08-07T10:26:20.584Z,56.52
2016-08-07T10:27:21.756Z,55.46
2016-08-07T10:28:32.338Z,55.58
2016-08-07T10:29:30.005Z,55.91
2016-08-07T10:30:36.963Z,55.61
2016-08-07T10:31:26.902Z,55.54
2016-08-07T10:32:37.891Z,56.27
2016-08-07T10:33:33.510Z,56.21
2016-08-07T10:34:38.824Z,56.22
2016-08-07T10:35:39.937Z,56.91
2016-08-07T10:36:25.142Z,56.54
2016-08-07T10:37:29.220Z,56.79
2016-08-07T10:38:38.678Z,56.71
2016-08-07T10:39:16.644Z,56.27
2016-08-07T10:40:19.925Z,56.69
2016-08-07T10:41:25.441Z,56.64
2016-08-07T10:42:27.360Z,56.43
2016-08-07T10:43:42.157Z,56.60
2016-08-07T10:44:15.656Z,57.02
2016-08-07T10:45:14.820Z,56.98
2016-08-07T10:46:27.502Z,56.64
2016-08-07T10:47:40.360Z,56.32
2016-08-07T10:48:30.426Z,55.44
2016-08-07T10:49:31.355Z,55.72
2016-08-07T10:50:29.341Z,55.34
2016-08-07T10:51:26.472Z,55.77
2016-08-07T10:52:32.540Z,55.55
2016-08-07T10:53:18.641Z,55.62
2016-08-07T10:54:27.401Z,56.42
2016-08-07T10:55:16.593Z,56.17
2016-08-07T10:56:19.064Z,55.36
2016-08-07T10:57:21.878Z,55.61
2016-08-07T10:58:30.095Z,55.84
2016-08-07T10:59:21.638Z,55.86
2016-08-07T11:00:24.470Z,56.22
2016-08-07T11:01:16.799Z,56.38
2016-08-07T11:02:42.540Z,56.66
2016-08-07T11:03:13.809Z,56.79
2016-08-07T11:04:26.813Z,57.03
2016-08-07T11:05:33.148Z,57.17
2016-08-07T11:06:27.787Z,57.30
2016-08-07T11:07:28.184Z,56.80
2016-08-07T11:08:18.522Z,57.27
2016-08-07T11:09:13.324Z,57.46
2016-08-07T11:10:13.590Z,57.31
2016-08-07T11:11:15.516Z,57.47
2016-08-07T11:12:13.596Z,57.39
2016-08-07T11:13:15.615Z,56.95
2016-08-07T11:14:16.326Z,56.63
2016-08-07T11:15:15.886Z,56.22
2016-08-07T11:16:14.589Z,55.63
2016-08-07T11:17:22.668Z,55.65
2016-08-07T11:18:19.063Z,55.07
2016-08-07T11:19:26.902Z,55.22
2016-08-07T11:20:21.752Z,55.97
2016-08-07T11:21:24.983Z,56.35
2016-08-07T11:22:15.701Z,56.42
2016-08-07T11:23:17.581Z,56.60
2016-08-07T11:24:19.879Z,56.63
2016-08-07T11:25:15.409Z,56.12
2016-08-07T11:26:16.735Z,55.84
2016-08-07T11:27:19.232Z,55.70
2016-08-07T11:28:16.797Z,54.93
2016-08-07T11:29:15.409Z,54.86
2016-08-07T11:30:16.888Z,55.28
2016-08-07T11:31:15.460Z,55.44
2016-08-07T11:32:14.458Z,55.00
2016-08-07T11:33:14.570Z,55.12
2016-08-07T11:34:15.145Z,54.15
2016-08-07T11:35:12.828Z,54.24
2016-08-07T11:36:19.823Z,54.40
2016-08-07T11:37:16.716Z,55.07
2016-08-07T11:38:13.428Z,55.90
2016-08-07T11:39:13.354Z,56.20
2016-08-07T11:40:12.622Z,56.33
2016-08-07T11:41:14.647Z,56.90
2016-08-07T11:42:19.382Z,56.80
2016-08-07T11:43:15.989Z,56.94
2016-08-07T11:44:16.384Z,56.28
2016-08-07T11:45:18.048Z,56.27
2016-08-07T11:46:20.327Z,56.28
2016-08-07T11:47:16.836Z,56.50
2016-08-07T11:48:20.678Z,56.85
2016-08-07T11:49:28.683Z,57.47
2016-08-07T11:50:22.322Z,57.59
2016-08-07T11:51:16.749Z,57.83
2016-08-07T11:52:16.147Z,57.89
2016-08-07T11:53:15.919Z,57.84
2016-08-07T11:54:17.326Z,57.94
2016-08-07T11:55:15.247Z,57.97
2016-08-07T11:56:13.446Z,58.04
2016-08-07T11:57:14.988Z,58.10
2016-08-07T11:58:13.029Z,58.13
2016-08-07T11:59:12.692Z,58.17
2016-08-07T12:00:22.915Z,58.14
2016-08-07T12:01:15.668Z,58.12
2016-08-07T12:02:16.527Z,58.11
2016-08-07T12:03:15.311Z,57.90
2016-08-07T12:04:14.705Z,57.30
2016-08-07T12:05:14.726Z,57.10
2016-08-07T12:06:14.133Z,57.00
2016-08-07T12:07:12.876Z,56.97
2016-08-07T12:08:14.805Z,56.91
2016-08-07T12:09:12.765Z,56.80
2016-08-07T12:10:13.522Z,56.64
2016-08-07T12:11:15.009Z,56.66
2016-08-07T12:12:12.160Z,55.66
2016-08-07T12:13:11.867Z,53.70
2016-08-07T12:14:12.389Z,57.02
2016-08-07T12:15:12.785Z,56.76
2016-08-07T12:16:17.609Z,56.41
2016-08-07T12:17:13.116Z,56.82
2016-08-07T12:18:14.619Z,56.79
2016-08-07T12:19:13.415Z,56.86
2016-08-07T12:20:13.666Z,56.61
2016-08-07T12:21:19.301Z,55.38
2016-08-07T12:22:22.219Z,55.41
2016-08-07T12:23:17.564Z,54.91
2016-08-07T12:24:13.922Z,55.30
2016-08-07T12:25:16.842Z,55.05
2016-08-07T12:26:17.138Z,55.11
2016-08-07T12:27:16.716Z,55.70
2016-08-07T12:28:17.728Z,55.19
2016-08-07T12:29:19.068Z,54.04
2016-08-07T12:30:14.092Z,55.10
2016-08-07T12:31:18.037Z,54.92
2016-08-07T12:32:13.207Z,53.51
2016-08-07T12:33:13.964Z,53.79
2016-08-07T12:34:18.352Z,54.78
2016-08-07T12:35:14.018Z,54.59
2016-08-07T12:36:16.864Z,54.37
2016-08-07T12:37:13.652Z,54.63
2016-08-07T12:38:16.632Z,55.06
2016-08-07T12:39:14.395Z,55.00
2016-08-07T12:40:16.967Z,54.66
2016-08-07T12:41:15.826Z,54.57
2016-08-07T12:42:22.971Z,54.56
2016-08-07T12:43:14.493Z,54.57
2016-08-07T12:44:17.754Z,54.68
2016-08-07T12:45:22.719Z,54.62
2016-08-07T12:46:17.024Z,54.80
2016-08-07T12:47:11.598Z,54.86
2016-08-07T12:48:17.464Z,54.11
2016-08-07T12:49:22.294Z,54.46
2016-08-07T12:50:14.917Z,55.15
2016-08-07T12:51:21.741Z,55.19
2016-08-07T12:52:20.959Z,55.53
2016-08-07T12:53:15.652Z,54.93
2016-08-07T12:54:23.033Z,55.58
2016-08-07T12:55:21.288Z,55.12
2016-08-07T12:56:18.690Z,55.20
2016-08-07T12:57:22.146Z,55.24
2016-08-07T12:58:12.928Z,54.36
2016-08-07T12:59:17.219Z,54.85
2016-08-07T13:00:17.189Z,54.87
2016-08-07T13:01:14.371Z,53.08
2016-08-07T13:02:14.206Z,53.14
2016-08-07T13:03:13.419Z,53.35
2016-08-07T13:04:16.306Z,53.14
2016-08-07T13:05:14.962Z,51.96
2016-08-07T13:06:16.392Z,52.64
2016-08-07T13:07:22.570Z,53.07
2016-08-07T13:08:16.701Z,53.21
2016-08-07T13:10:18.037Z,53.72
2016-08-07T13:11:15.136Z,54.06
2016-08-07T13:12:16.471Z,53.91
2016-08-07T13:13:21.441Z,54.47
2016-08-07T13:14:11.159Z,54.52